createdAt,value
2022-12-27T00:01:00.953Z,41.44
2022-12-27T00:04:03.824Z,41.81
2022-12-27T00:07:06.693Z,41.56
2022-12-27T00:10:09.879Z,41.68
2022-12-27T00:13:12.575Z,41.75
2022-12-27T00:16:20.872Z,41.75
2022-12-27T00:19:23.700Z,41.84
2022-12-27T00:22:26.543Z,41.86
2022-12-27T00:25:29.243Z,41.79
2022-12-27T00:28:32.509Z,41.78
2022-12-27T00:31:36.648Z,41.92
2022-12-27T00:34:39.421Z,42.06
2022-12-27T00:37:42.167Z,41.98
2022-12-27T00:40:44.964Z,41.94
2022-12-27T00:43:47.802Z,42.17
2022-12-27T00:46:51.928Z,41.85
2022-12-27T00:49:54.653Z,41.79
2022-12-27T00:52:57.409Z,41.85
2022-12-27T00:56:00.342Z,42.09
2022-12-27T00:59:04.695Z,42.12
2022-12-27T01:02:08.894Z,42.02
2022-12-27T01:05:11.651Z,42.21
2022-12-27T01:08:14.861Z,42.00
2022-12-27T01:11:18.953Z,42.15
2022-12-27T01:14:21.616Z,42.00
2022-12-27T01:17:25.716Z,42.06
2022-12-27T01:20:28.495Z,41.98
2022-12-27T01:23:32.515Z,42.17
2022-12-27T01:26:36.302Z,42.06
2022-12-27T01:29:39.100Z,42.17
2022-12-27T01:32:43.237Z,42.17
2022-12-27T01:35:46.099Z,42.24
2022-12-27T01:38:49.282Z,42.14
2022-12-27T01:42:09.399Z,42.08
2022-12-27T01:45:14.954Z,42.10
2022-12-27T01:48:21.247Z,42.22
2022-12-27T01:51:24.176Z,42.17
2022-12-27T01:54:27.925Z,42.25
2022-12-27T01:57:30.656Z,42.29
2022-12-27T02:00:33.762Z,42.27
2022-12-27T02:03:40.228Z,42.36
2022-12-27T02:06:43.467Z,42.17
2022-12-27T02:09:49.382Z,42.30
2022-12-27T02:12:52.265Z,42.26
2022-12-27T02:15:54.938Z,42.30
2022-12-27T02:18:59.066Z,42.31
2022-12-27T02:22:28.837Z,42.41
2022-12-27T02:25:39.128Z,42.42
2022-12-27T02:28:50.212Z,42.54
2022-12-27T02:31:56.795Z,42.36
2022-12-27T02:35:06.199Z,42.27
2022-12-27T02:38:10.635Z,42.28
2022-12-27T02:41:31.044Z,42.31
2022-12-27T02:44:53.116Z,42.32
2022-12-27T02:48:13.048Z,42.29
2022-12-27T02:51:42.716Z,42.29
2022-12-27T02:55:05.398Z,42.13
2022-12-27T02:58:21.379Z,42.62
2022-12-27T03:02:01.997Z,42.79
2022-12-27T03:05:11.280Z,42.69
2022-12-27T03:08:18.906Z,42.64
2022-12-27T03:11:35.799Z,42.50
2022-12-27T03:14:58.280Z,42.39
2022-12-27T03:18:05.172Z,42.03
2022-12-27T03:21:25.997Z,42.07
2022-12-27T03:24:48.352Z,41.88
2022-12-27T03:28:12.140Z,41.73
2022-12-27T03:31:34.735Z,41.70
2022-12-27T03:34:40.704Z,41.48
2022-12-27T03:38:05.403Z,41.47
2022-12-27T03:41:26.840Z,41.41
2022-12-27T03:44:29.589Z,41.26
2022-12-27T03:47:34.730Z,41.25
2022-12-27T03:50:41.873Z,41.01
2022-12-27T03:53:47.019Z,41.06
2022-12-27T03:56:49.794Z,41.10
2022-12-27T03:59:52.547Z,41.00
2022-12-27T04:02:55.744Z,41.17
2022-12-27T04:05:59.947Z,40.97
2022-12-27T04:09:20.227Z,40.99
2022-12-27T04:12:40.589Z,40.83
2022-12-27T04:16:00.998Z,41.00
2022-12-27T04:19:21.223Z,40.99
2022-12-27T04:22:42.902Z,40.72
2022-12-27T04:26:03.435Z,40.81
2022-12-27T04:29:23.882Z,40.83
2022-12-27T04:32:43.825Z,40.89
2022-12-27T04:35:46.597Z,40.64
2022-12-27T04:38:50.738Z,40.70
2022-12-27T04:42:11.274Z,40.56
2022-12-27T04:45:31.670Z,40.59
2022-12-27T04:48:51.482Z,40.61
2022-12-27T04:52:11.976Z,40.72
2022-12-27T04:55:18.936Z,40.69
2022-12-27T04:58:21.682Z,40.61
2022-12-27T05:01:42.135Z,40.48
2022-12-27T05:04:45.614Z,40.61
2022-12-27T05:08:06.010Z,40.38
2022-12-27T05:11:28.088Z,40.36
2022-12-27T05:14:30.895Z,40.56
2022-12-27T05:17:33.700Z,40.36
2022-12-27T05:20:36.456Z,40.32
2022-12-27T05:24:03.358Z,40.44
2022-12-27T05:27:09.397Z,40.36
2022-12-27T05:30:12.914Z,40.31
2022-12-27T05:33:15.621Z,40.37
2022-12-27T05:36:18.484Z,40.16
2022-12-27T05:39:22.266Z,40.44
2022-12-27T05:42:26.409Z,40.26
2022-12-27T05:45:29.612Z,40.14
2022-12-27T05:48:32.393Z,40.36
2022-12-27T05:51:36.204Z,40.48
2022-12-27T05:54:39.008Z,40.25
2022-12-27T05:57:43.093Z,40.33
2022-12-27T06:00:45.879Z,40.27
2022-12-27T06:03:48.680Z,40.25
2022-12-27T06:06:51.425Z,40.15
2022-12-27T06:09:54.139Z,40.23
2022-12-27T06:13:00.393Z,40.32
2022-12-27T06:16:03.687Z,40.42
2022-12-27T06:19:06.506Z,40.42
2022-12-27T06:22:09.304Z,40.24
2022-12-27T06:25:14.264Z,40.44
2022-12-27T06:28:18.686Z,40.41
2022-12-27T06:31:21.962Z,40.36
2022-12-27T06:34:24.779Z,40.23
2022-12-27T06:37:27.499Z,40.47
2022-12-27T06:40:30.239Z,40.39
2022-12-27T06:43:34.630Z,40.30
2022-12-27T06:46:37.428Z,40.33
2022-12-27T06:49:40.207Z,40.53
2022-12-27T06:52:42.957Z,40.60
2022-12-27T06:55:45.753Z,40.54
2022-12-27T06:58:50.478Z,40.59
2022-12-27T07:01:53.405Z,40.79
2022-12-27T07:04:56.285Z,40.59
2022-12-27T07:07:59.099Z,40.83
2022-12-27T07:11:02.307Z,40.90
2022-12-27T07:14:10.105Z,40.97
2022-12-27T07:17:12.798Z,41.07
2022-12-27T07:20:15.546Z,41.07
2022-12-27T07:23:19.519Z,41.18
2022-12-27T07:26:23.383Z,41.16
2022-12-27T07:29:27.656Z,41.18
2022-12-27T07:32:30.363Z,41.14
2022-12-27T07:35:33.137Z,41.34
2022-12-27T07:38:35.909Z,41.22
2022-12-27T07:41:38.939Z,41.22
2022-12-27T07:44:43.090Z,41.43
2022-12-27T07:47:45.795Z,41.57
2022-12-27T07:50:54.355Z,41.53
2022-12-27T07:53:57.302Z,41.62
2022-12-27T07:57:00.097Z,41.72
2022-12-27T08:00:05.572Z,41.57
2022-12-27T08:03:08.380Z,41.57
2022-12-27T08:06:19.936Z,41.68
2022-12-27T08:09:27.050Z,41.72
2022-12-27T08:12:29.942Z,41.62
2022-12-27T08:15:34.129Z,41.51
2022-12-27T08:18:36.841Z,41.65
2022-12-27T08:21:39.725Z,41.63
2022-12-27T08:24:42.557Z,41.56
2022-12-27T08:27:45.316Z,41.54
2022-12-27T08:30:49.540Z,41.64
2022-12-27T08:33:58.116Z,41.58
2022-12-27T08:37:01.377Z,41.58
2022-12-27T08:40:04.242Z,41.61
2022-12-27T08:43:07.003Z,41.55
2022-12-27T08:46:11.119Z,41.61
2022-12-27T08:49:13.920Z,41.49
2022-12-27T08:52:16.740Z,41.53
2022-12-27T08:55:19.546Z,41.37
2022-12-27T08:58:22.272Z,41.34
2022-12-27T09:01:26.691Z,41.19
2022-12-27T09:04:29.578Z,41.05
2022-12-27T09:07:32.805Z,40.87
2022-12-27T09:10:35.583Z,41.02
2022-12-27T09:13:38.834Z,40.95
2022-12-27T09:16:42.965Z,40.85
2022-12-27T09:19:45.650Z,40.79
2022-12-27T09:22:48.438Z,40.41
2022-12-27T09:25:51.192Z,40.67
2022-12-27T09:28:54.083Z,40.76
2022-12-27T09:31:58.247Z,40.67
2022-12-27T09:35:01.762Z,40.38
2022-12-27T09:38:04.556Z,40.55
2022-12-27T09:41:08.373Z,40.45
2022-12-27T09:44:13.991Z,40.48
2022-12-27T09:47:20.439Z,40.42
2022-12-27T09:50:26.918Z,40.39
2022-12-27T09:53:38.131Z,40.50
2022-12-27T09:57:17.732Z,40.12
2022-12-27T10:00:05.963Z,40.18
2022-12-27T10:03:10.417Z,40.03
2022-12-27T10:06:22.999Z,39.90
2022-12-27T10:09:32.103Z,40.10
2022-12-27T10:12:48.480Z,40.17
2022-12-27T10:15:53.013Z,40.05
2022-12-27T10:19:05.198Z,39.90
2022-12-27T10:22:16.891Z,39.69
2022-12-27T10:25:21.140Z,39.99
2022-12-27T10:28:27.924Z,40.05
2022-12-27T10:31:32.172Z,40.22
2022-12-27T10:34:36.317Z,40.21
2022-12-27T10:37:39.085Z,40.05
2022-12-27T10:40:47.565Z,40.20
2022-12-27T10:43:52.432Z,40.44
2022-12-27T10:46:56.456Z,41.04
2022-12-27T10:50:10.629Z,41.14
2022-12-27T10:53:28.511Z,40.63
2022-12-27T10:56:32.394Z,40.78
2022-12-27T10:59:35.180Z,40.97
2022-12-27T11:02:49.692Z,40.79
2022-12-27T11:06:02.168Z,40.87
2022-12-27T11:09:20.695Z,40.81
2022-12-27T11:12:28.812Z,40.69
2022-12-27T11:15:32.555Z,40.86
2022-12-27T11:18:37.104Z,40.84
2022-12-27T11:21:41.355Z,41.18
2022-12-27T11:24:46.820Z,41.21
2022-12-27T11:27:50.960Z,41.23
2022-12-27T11:30:57.096Z,40.92
2022-12-27T11:34:01.816Z,41.24
2022-12-27T11:37:07.828Z,41.30
2022-12-27T11:40:21.385Z,41.58
2022-12-27T11:43:27.623Z,41.32
2022-12-27T11:46:36.469Z,41.55
2022-12-27T11:49:41.425Z,41.88
2022-12-27T11:52:54.101Z,41.81
2022-12-27T11:56:14.034Z,41.72
2022-12-27T11:59:30.202Z,41.77
2022-12-27T12:02:38.880Z,41.89
2022-12-27T12:05:49.970Z,41.90
2022-12-27T12:09:01.582Z,42.03
2022-12-27T12:12:17.689Z,41.96
2022-12-27T12:15:43.016Z,42.17
2022-12-27T12:18:54.929Z,42.05
2022-12-27T12:22:06.746Z,42.09
2022-12-27T12:25:25.278Z,42.03
2022-12-27T12:28:58.040Z,41.80
2022-12-27T12:32:24.974Z,42.19
2022-12-27T12:35:48.634Z,42.10
2022-12-27T12:38:53.785Z,42.02
2022-12-27T12:42:01.748Z,41.83
2022-12-27T12:45:20.906Z,41.70
2022-12-27T12:48:44.351Z,41.46
2022-12-27T12:51:54.337Z,41.36
2022-12-27T12:55:02.459Z,41.30
2022-12-27T12:58:12.112Z,41.16
2022-12-27T13:01:26.713Z,41.10
2022-12-27T13:04:47.560Z,40.89
2022-12-27T13:07:58.285Z,41.00
2022-12-27T13:11:18.987Z,40.97
2022-12-27T13:14:31.359Z,41.08
2022-12-27T13:17:40.324Z,41.05
2022-12-27T13:20:58.194Z,41.04
2022-12-27T13:24:07.410Z,41.24
2022-12-27T13:27:13.927Z,41.20
2022-12-27T13:30:20.139Z,41.27
2022-12-27T13:33:30.478Z,41.25
2022-12-27T13:36:37.127Z,41.24
2022-12-27T13:39:47.751Z,41.33
2022-12-27T13:43:11.475Z,41.59
2022-12-27T13:46:40.015Z,41.48
2022-12-27T13:49:58.964Z,41.35
2022-12-27T13:53:19.384Z,41.52
2022-12-27T13:56:53.573Z,41.59
2022-12-27T14:00:02.045Z,41.64
2022-12-27T14:03:22.805Z,41.65
2022-12-27T14:06:53.079Z,41.71
2022-12-27T14:10:07.107Z,41.62
2022-12-27T14:13:10.596Z,41.75
2022-12-27T14:16:25.713Z,41.88
2022-12-27T14:19:45.191Z,41.85
2022-12-27T14:22:59.788Z,41.87
2022-12-27T14:26:21.708Z,41.83
2022-12-27T14:29:43.046Z,41.71
2022-12-27T14:33:00.671Z,41.68
2022-12-27T14:36:18.282Z,41.78
2022-12-27T14:39:35.834Z,41.58
2022-12-27T14:43:08.505Z,41.67
2022-12-27T14:46:39.176Z,41.76
2022-12-27T14:50:00.668Z,41.85
2022-12-27T14:53:13.941Z,41.83
2022-12-27T14:56:22.721Z,41.93
2022-12-27T14:59:31.561Z,41.80
2022-12-27T15:02:44.416Z,41.81
2022-12-27T15:06:04.131Z,41.83
2022-12-27T15:09:12.166Z,41.84
2022-12-27T15:12:19.827Z,42.01
2022-12-27T15:15:29.829Z,41.82
2022-12-27T15:21:55.089Z,41.92
2022-12-27T15:25:01.228Z,41.98
2022-12-27T15:28:08.409Z,41.94
2022-12-27T15:31:17.079Z,41.95
2022-12-27T15:34:30.501Z,41.99
2022-12-27T15:37:53.680Z,41.89
2022-12-27T15:41:11.378Z,41.98
2022-12-27T15:44:26.734Z,42.08
2022-12-27T15:47:41.512Z,41.90
2022-12-27T15:50:54.326Z,42.02
2022-12-27T15:54:07.601Z,41.91
2022-12-27T15:57:28.260Z,41.80
2022-12-27T16:00:34.362Z,42.03
2022-12-27T16:03:39.197Z,42.04
2022-12-27T16:06:52.364Z,41.81
2022-12-27T16:09:56.924Z,41.61
2022-12-27T16:13:00.494Z,41.51
2022-12-27T16:16:03.555Z,41.47
2022-12-27T16:19:17.015Z,41.14
2022-12-27T16:22:36.693Z,40.90
2022-12-27T16:25:42.126Z,40.85
2022-12-27T16:28:52.428Z,40.65
2022-12-27T16:32:12.929Z,40.71
2022-12-27T16:35:17.017Z,40.58
2022-12-27T16:38:22.603Z,40.50
2022-12-27T16:41:36.746Z,40.56
2022-12-27T16:44:49.585Z,40.45
2022-12-27T16:48:09.002Z,40.50
2022-12-27T16:51:17.512Z,40.29
2022-12-27T16:54:27.732Z,40.54
2022-12-27T16:57:40.434Z,40.63
2022-12-27T17:00:43.982Z,40.57
2022-12-27T17:03:48.326Z,40.47
2022-12-27T17:06:55.694Z,40.63
2022-12-27T17:10:18.462Z,40.48
2022-12-27T17:13:24.328Z,40.53
2022-12-27T17:16:29.342Z,40.45
2022-12-27T17:19:35.124Z,40.35
2022-12-27T17:22:41.308Z,40.42
2022-12-27T17:25:52.566Z,40.20
2022-12-27T17:29:02.786Z,40.24
2022-12-27T17:32:10.476Z,40.14
2022-12-27T17:35:16.863Z,40.17
2022-12-27T17:38:26.116Z,40.29
2022-12-27T17:41:50.954Z,40.25
2022-12-27T17:45:03.307Z,40.13
2022-12-27T17:48:09.980Z,40.12
2022-12-27T17:51:15.916Z,40.03
2022-12-27T17:54:41.283Z,40.03
2022-12-27T17:57:56.705Z,40.04
2022-12-27T18:01:03.480Z,40.14
2022-12-27T18:04:07.065Z,40.13
2022-12-27T18:07:10.927Z,40.14
2022-12-27T18:10:19.589Z,40.12
2022-12-27T18:13:25.472Z,40.18
2022-12-27T18:16:34.161Z,40.15
2022-12-27T18:19:36.909Z,39.91
2022-12-27T18:22:39.654Z,40.10
2022-12-27T18:25:50.556Z,40.01
2022-12-27T18:28:53.429Z,40.23
2022-12-27T18:32:02.180Z,39.83
2022-12-27T18:35:24.257Z,39.88
2022-12-27T18:38:29.027Z,40.01
2022-12-27T18:41:36.104Z,39.87
2022-12-27T18:44:42.881Z,39.92
2022-12-27T18:47:48.396Z,39.96
2022-12-27T18:50:52.489Z,40.23
2022-12-27T18:53:56.248Z,40.29
2022-12-27T18:57:00.951Z,40.24
2022-12-27T19:00:14.543Z,40.43
2022-12-27T19:03:20.303Z,40.43
2022-12-27T19:06:23.059Z,40.52
2022-12-27T19:09:28.356Z,40.61
2022-12-27T19:12:34.105Z,40.47
2022-12-27T19:15:38.687Z,40.70
2022-12-27T19:18:50.831Z,40.77
2022-12-27T19:21:54.070Z,40.89
2022-12-27T19:24:59.185Z,40.76
2022-12-27T19:28:03.898Z,40.84
2022-12-27T19:31:09.662Z,40.98
2022-12-27T19:34:16.940Z,40.98
2022-12-27T19:37:20.298Z,41.02
2022-12-27T19:40:24.309Z,41.09
2022-12-27T19:43:27.792Z,41.29
2022-12-27T19:46:31.704Z,41.46
2022-12-27T19:49:44.612Z,41.18
2022-12-27T19:52:50.774Z,41.24
2022-12-27T19:55:53.799Z,41.18
2022-12-27T19:58:56.557Z,41.29
2022-12-27T20:02:00.571Z,41.28
2022-12-27T20:05:04.920Z,41.28
2022-12-27T20:08:23.847Z,41.31
2022-12-27T20:11:27.839Z,41.33
2022-12-27T20:14:30.690Z,41.28
2022-12-27T20:17:33.454Z,41.44
2022-12-27T20:20:38.721Z,41.43
2022-12-27T20:23:41.498Z,41.34
2022-12-27T20:26:44.306Z,41.29
2022-12-27T20:29:46.993Z,41.37
2022-12-27T20:32:49.752Z,41.21
2022-12-27T20:35:58.168Z,41.15
2022-12-27T20:39:01.237Z,41.17
2022-12-27T20:42:03.997Z,41.18
2022-12-27T20:45:07.386Z,41.34
2022-12-27T20:48:10.918Z,41.25
2022-12-27T20:51:16.579Z,41.10
2022-12-27T20:54:19.377Z,41.35
2022-12-27T20:57:22.178Z,41.14
2022-12-27T21:00:24.888Z,41.15
2022-12-27T21:03:29.563Z,41.01
2022-12-27T21:06:33.719Z,41.09
2022-12-27T21:09:36.636Z,41.08
2022-12-27T21:12:39.558Z,41.06
2022-12-27T21:15:46.219Z,40.94
2022-12-27T21:18:49.313Z,40.88
2022-12-27T21:21:53.542Z,40.70
2022-12-27T21:24:56.356Z,40.67
2022-12-27T21:27:59.132Z,40.67
2022-12-27T21:31:01.994Z,40.58
2022-12-27T21:34:07.060Z,40.43
2022-12-27T21:37:13.440Z,40.31
2022-12-27T21:40:16.539Z,40.33
2022-12-27T21:43:19.299Z,40.32
2022-12-27T21:46:23.829Z,40.10
2022-12-27T21:49:26.625Z,40.05
2022-12-27T21:52:30.740Z,40.12
2022-12-27T21:55:33.565Z,40.07
2022-12-27T21:58:37.686Z,39.92
2022-12-27T22:01:50.327Z,40.13
2022-12-27T22:04:54.875Z,39.74
2022-12-27T22:07:59.081Z,40.01
2022-12-27T22:11:01.804Z,39.96
2022-12-27T22:14:05.043Z,39.83
2022-12-27T22:17:07.768Z,39.87
2022-12-27T22:20:11.087Z,39.87
2022-12-27T22:23:15.273Z,39.89
2022-12-27T22:26:19.239Z,39.67
2022-12-27T22:29:22.132Z,39.69
2022-12-27T22:32:25.956Z,39.68
2022-12-27T22:35:28.674Z,40.05
2022-12-27T22:38:32.775Z,39.69
2022-12-27T22:41:36.539Z,39.74
2022-12-27T22:44:39.315Z,39.61
2022-12-27T22:47:42.122Z,39.61
2022-12-27T22:50:44.925Z,39.60
2022-12-27T22:53:49.064Z,39.71
2022-12-27T22:56:51.795Z,39.66
2022-12-27T22:59:54.569Z,39.49
2022-12-27T23:02:57.362Z,39.52
2022-12-27T23:06:00.837Z,39.51
2022-12-27T23:09:05.471Z,39.56
2022-12-27T23:12:08.347Z,39.58
2022-12-27T23:15:12.310Z,39.67
2022-12-27T23:18:15.066Z,39.36
2022-12-27T23:21:24.086Z,39.33
2022-12-27T23:24:28.685Z,39.36
2022-12-27T23:27:31.455Z,39.29
2022-12-27T23:30:34.229Z,39.43
2022-12-27T23:33:37.177Z,39.42
2022-12-27T23:36:39.948Z,39.21
2022-12-27T23:39:44.047Z,39.31
2022-12-27T23:42:46.837Z,39.46
2022-12-27T23:45:49.670Z,39.47
2022-12-27T23:48:52.480Z,39.42
2022-12-27T23:51:55.290Z,39.49
2022-12-27T23:54:59.475Z,39.57
2022-12-27T23:58:02.255Z,39.63
